Terminal Aerodrome Forecast
Issued by NWS Albuquerque, NM

Home | Current Version | Previous Version | Text Only | Print | Product List | Glossary On
Versions: 1 2 3 4 5 6 7 8 9 10 11 12
000
FTUS45 KABQ 061742
TAFABQ
TAF
KABQ 061742Z 0618/0718 19025G35KT P6SM FEW110
     FM070230 16011KT P6SM FEW100
     FM071500 25012KT P6SM SCT100=

USA.gov is the U.S. government's official web portal to all federal, state and local government web resources and services.